Main page
METAR-TAF:

METAR-TAF

Airports :

Dresden Airport

Dresden, Germany

latitude: 51-08N, longitude: 013-45E, elevation: 230 m

Current weather observation

The report was made 14 minutes ago, at 21:50 UTC
Wind 5 kt from the South
Temperature 13°C
Humidity 94%
Pressure 1021 hPa
Visibility 10 km or more
no clouds below 1500 m and no cumulonimbus

METAR: EDDC 212150Z 19005KT CAVOK 13/12 Q1021

Time: 00:04 (22:04 UTC)

Forecast

The report was made 5 hours and 4 minutes ago, at 17:00 UTC
Forecast valid from 21 at 18 UTC to 22 at 18 UTC
Wind 3 kt from variable directions
Visibility 10 km or more
no clouds below 1500 m and no cumulonimbus
Probability 30% :
Temporary
from 22 at 04 UTC to 22 at 07 UTC
Visibility: 2000 m
patches of fog

TAF: EDDC 211700Z 2118/2218 VRB03KT CAVOK PROB30 TEMPO 2204/2207 2000 BCFG

Weather observations and forecasts of more than 4000 airports (METAR and TAF reports).

The available stations are represented by yellow and red dots on the map.

Hover mouse over dot to see the name of the station.

Then click to see weather observations and forecasts.

To change the map : click on the green buttons with a black cross to zoom in, on the green button with a dash to zoom out, or on the green arrows for adjacent maps.


METAR-TAF: